Decoded Metar for YWLM (WILLIAMTOWN ARP in _UNIDENTIFIED) (IATA:N/A) | Meteo·Mobile Aviation Weather
aviador You're here:

YWLM Decoded Metar

WILLIAMTOWN ARP in _UNIDENTIFIED
Report Time2018-09-19 15:00:00
UTC Time2018-09-19 15:24:34
Flight Rules vfr VFR
Wind200° at 12 kt
W.Decomp.*RWY 12: 4.5 kt HW 11.1 kt RCW
W.Rank200° ranks 23
Current wind is above 200° avg. (10.7)
Visibility9999 m
Phenomena:N/A
Clouds:Scattered 041 Hf
Expected CloudBase > 4,400 ft AGL from Temp-Dew spread
CeilingNone
Temp16°C (ISA +1)
Dew Point05°C (48% RH)
AAT10.6°C
QNH1014 hPa
Density Alt243 ft
Elevation30 ft
Report Wrong Elevation
Raw Report
METAR YWLM 191500Z AUTO 20012KT 9999 // SCT041 16/05 Q1014=

Extra information for YWLM:More info

Metar Taf Metar & Taf Last 4 Metars F.Rules Stats Wind Profile Meteogram Temp Stats Airport Information Weather charts Add Link Nearby VenuesMetar ALERT Operation Metar Decoded Social comments